Time;durP1;ratioP1;P1;durP2;ratioP2;P2;SDS_P1;SDS_P2;PMS_P1;PMS_P2;Temp;Humidity;BMP_temperature;BMP_pressure;BME280_temperature;BME280_humidity;BME280_pressure;Samples;Min_cycle;Max_cycle;Signal;HPM_P1;HPM_P2
2022/07/15 00:00:27;;;;;;;;;;;21.70;84.50;;;;;;5075695;28;19909;-72
2022/07/15 00:02:53;;;;;;;;;;;21.60;84.80;;;;;;5076034;28;20383;-69
2022/07/15 00:05:19;;;;;;;;;;;21.60;85.50;;;;;;5075765;28;19915;-69
2022/07/15 00:07:44;;;;;;;;;;;21.50;85.50;;;;;;5075566;28;19912;-69
2022/07/15 00:10:20;;;;;;;;;;;21.40;85.70;;;;;;5075526;28;20329;-69
2022/07/15 00:12:48;;;;;;;;;;;21.40;85.90;;;;;;5075456;28;19998;-69
2022/07/15 00:15:14;;;;;;;;;;;21.30;86.60;;;;;;5075007;28;19908;-68
2022/07/15 00:17:40;;;;;;;;;;;21.30;87.10;;;;;;5075355;28;19908;-69
2022/07/15 00:20:06;;;;;;;;;;;21.20;87.50;;;;;;5074973;28;19908;-69
2022/07/15 00:22:32;;;;;;;;;;;21.10;88.60;;;;;;5074820;28;20273;-69
2022/07/15 00:24:57;;;;;;;;;;;21.20;88.50;;;;;;5074342;28;19915;-69
2022/07/15 00:27:23;;;;;;;;;;;21.10;88.30;;;;;;5075168;28;19916;-69
2022/07/15 00:29:49;;;;;;;;;;;21.10;88.60;;;;;;5074842;28;19915;-69
2022/07/15 00:32:14;;;;;;;;;;;21.10;88.90;;;;;;5075037;28;19909;-68
2022/07/15 00:34:40;;;;;;;;;;;21.00;89.30;;;;;;5074579;28;19916;-70
2022/07/15 00:37:05;;;;;;;;;;;20.90;89.90;;;;;;5074661;28;19908;-69
2022/07/15 00:39:31;;;;;;;;;;;20.90;90.10;;;;;;5073638;28;19913;-70
2022/07/15 00:41:56;;;;;;;;;;;20.90;90.00;;;;;;5074494;28;20292;-69
2022/07/15 00:44:22;;;;;;;;;;;20.90;90.00;;;;;;5074735;28;19913;-70
2022/07/15 00:46:48;;;;;;;;;;;20.90;89.90;;;;;;5074496;28;20318;-70
2022/07/15 00:49:13;;;;;;;;;;;20.90;90.10;;;;;;5074758;28;20312;-70
2022/07/15 00:51:43;;;;;;;;;;;20.90;90.10;;;;;;5074939;28;20005;-69
2022/07/15 00:54:10;;;;;;;;;;;20.80;90.40;;;;;;5074273;28;20014;-70
2022/07/15 00:56:37;;;;;;;;;;;20.80;90.60;;;;;;5074344;28;20411;-70
2022/07/15 00:59:04;;;;;;;;;;;20.70;90.40;;;;;;5074534;28;19919;-70
2022/07/15 01:01:30;;;;;;;;;;;20.70;90.30;;;;;;5074728;28;19915;-70
2022/07/15 01:03:57;;;;;;;;;;;20.70;90.60;;;;;;5074321;28;19913;-70
2022/07/15 01:06:26;;;;;;;;;;;20.70;90.50;;;;;;5074391;28;19962;-70
2022/07/15 01:08:52;;;;;;;;;;;20.70;90.90;;;;;;5075525;28;19908;-69
2022/07/15 01:11:17;;;;;;;;;;;20.70;91.00;;;;;;5074098;28;19908;-70
2022/07/15 01:13:43;;;;;;;;;;;20.60;90.80;;;;;;5074031;28;19908;-70
2022/07/15 01:16:09;;;;;;;;;;;20.60;91.10;;;;;;5074368;28;20280;-69
2022/07/15 01:18:34;;;;;;;;;;;20.60;91.30;;;;;;5074010;28;19995;-70
2022/07/15 01:21:00;;;;;;;;;;;20.70;91.20;;;;;;5074056;28;19916;-69
2022/07/15 01:23:26;;;;;;;;;;;20.70;91.10;;;;;;5074456;28;19912;-70
2022/07/15 01:25:53;;;;;;;;;;;20.60;91.30;;;;;;5073914;28;20357;-70
2022/07/15 01:28:18;;;;;;;;;;;20.60;91.20;;;;;;5074227;28;19908;-69
2022/07/15 01:30:44;;;;;;;;;;;20.60;91.30;;;;;;5072542;28;19958;-69
2022/07/15 01:33:10;;;;;;;;;;;20.50;91.30;;;;;;5073902;28;19908;-68
2022/07/15 01:35:35;;;;;;;;;;;20.60;91.00;;;;;;5073032;28;19946;-68
2022/07/15 01:38:01;;;;;;;;;;;20.50;91.00;;;;;;5073630;28;20382;-69
2022/07/15 01:40:26;;;;;;;;;;;20.50;91.10;;;;;;5073768;28;20007;-70
2022/07/15 01:42:52;;;;;;;;;;;20.40;90.70;;;;;;5073692;28;19924;-70
2022/07/15 01:45:17;;;;;;;;;;;20.40;90.70;;;;;;5074258;28;20456;-69
2022/07/15 01:47:47;;;;;;;;;;;20.40;90.10;;;;;;5073737;28;19944;-69
2022/07/15 01:50:13;;;;;;;;;;;20.40;88.40;;;;;;5073737;28;20392;-69
2022/07/15 01:52:38;;;;;;;;;;;20.40;88.60;;;;;;5073662;28;19920;-68
2022/07/15 01:55:05;;;;;;;;;;;20.30;88.30;;;;;;5073926;28;19913;-70
2022/07/15 01:57:30;;;;;;;;;;;20.20;89.10;;;;;;5073562;28;19912;-70
2022/07/15 01:59:56;;;;;;;;;;;20.10;88.90;;;;;;5073568;28;19958;-70
2022/07/15 02:02:21;;;;;;;;;;;20.10;88.80;;;;;;5073530;28;20131;-70
2022/07/15 02:04:47;;;;;;;;;;;20.10;89.60;;;;;;5073446;28;19909;-70
2022/07/15 02:07:13;;;;;;;;;;;20.10;89.50;;;;;;5073550;28;20345;-70
2022/07/15 02:09:38;;;;;;;;;;;20.00;90.00;;;;;;5073478;28;19979;-70
2022/07/15 02:12:05;;;;;;;;;;;20.00;89.40;;;;;;5073457;28;19913;-69
2022/07/15 02:14:30;;;;;;;;;;;20.00;88.10;;;;;;5073403;28;20022;-69
2022/07/15 02:16:56;;;;;;;;;;;19.90;88.80;;;;;;5073412;28;19908;-70
2022/07/15 02:19:21;;;;;;;;;;;19.90;89.20;;;;;;5072133;28;19913;-69
2022/07/15 02:21:47;;;;;;;;;;;19.80;89.30;;;;;;5073355;28;19908;-70
2022/07/15 02:24:13;;;;;;;;;;;19.70;88.90;;;;;;5073553;28;19913;-69
2022/07/15 02:26:39;;;;;;;;;;;19.60;89.00;;;;;;5072118;28;19908;-69
2022/07/15 02:29:04;;;;;;;;;;;19.50;90.00;;;;;;5073321;28;20360;-68
2022/07/15 02:31:30;;;;;;;;;;;19.40;90.10;;;;;;5073257;28;19935;-68
2022/07/15 02:33:56;;;;;;;;;;;19.30;90.30;;;;;;5073314;28;19913;-70
2022/07/15 02:36:21;;;;;;;;;;;19.20;90.50;;;;;;5073533;28;20007;-69
2022/07/15 02:38:47;;;;;;;;;;;19.20;90.60;;;;;;5073213;28;19908;-69
2022/07/15 02:41:13;;;;;;;;;;;19.10;90.60;;;;;;5073508;28;20372;-69
2022/07/15 02:43:41;;;;;;;;;;;19.00;91.10;;;;;;5071857;28;20430;-70
2022/07/15 02:46:07;;;;;;;;;;;19.00;91.20;;;;;;5073109;28;19947;-69
2022/07/15 02:48:33;;;;;;;;;;;19.00;91.30;;;;;;5075755;28;20381;-69
2022/07/15 02:50:59;;;;;;;;;;;19.00;91.00;;;;;;5076725;28;19909;-69
2022/07/15 02:53:28;;;;;;;;;;;18.90;91.30;;;;;;5076713;28;19958;-70
2022/07/15 02:55:54;;;;;;;;;;;18.90;91.40;;;;;;5075297;28;19943;-70
2022/07/15 02:58:20;;;;;;;;;;;18.90;91.30;;;;;;5076570;28;19913;-69
2022/07/15 03:00:45;;;;;;;;;;;18.90;91.10;;;;;;5076519;28;19958;-69
2022/07/15 03:03:12;;;;;;;;;;;18.90;90.90;;;;;;5076466;28;19916;-70
2022/07/15 03:05:38;;;;;;;;;;;18.80;91.40;;;;;;5076412;28;19915;-69
2022/07/15 03:08:04;;;;;;;;;;;18.80;91.80;;;;;;5076399;28;19909;-70
2022/07/15 03:10:29;;;;;;;;;;;18.80;91.90;;;;;;5076664;28;19948;-70
2022/07/15 03:12:55;;;;;;;;;;;18.80;93.30;;;;;;5076886;28;19954;-70
2022/07/15 03:15:20;;;;;;;;;;;18.60;94.50;;;;;;5076373;28;19955;-70
2022/07/15 03:17:46;;;;;;;;;;;18.50;94.20;;;;;;5076760;28;19909;-70
2022/07/15 03:20:11;;;;;;;;;;;18.40;94.70;;;;;;5076245;28;19909;-69
2022/07/15 03:22:37;;;;;;;;;;;18.40;96.00;;;;;;5076386;28;20014;-70
2022/07/15 03:25:03;;;;;;;;;;;18.30;97.20;;;;;;5076081;28;19908;-70
2022/07/15 03:27:28;;;;;;;;;;;18.10;97.20;;;;;;5076439;28;19916;-70
2022/07/15 03:29:54;;;;;;;;;;;18.10;98.40;;;;;;5076596;28;19908;-70
2022/07/15 03:32:20;;;;;;;;;;;18.10;98.20;;;;;;5074739;28;19909;-70
2022/07/15 03:34:46;;;;;;;;;;;18.10;99.10;;;;;;5075886;28;19916;-70
2022/07/15 03:37:11;;;;;;;;;;;18.10;98.60;;;;;;5075879;28;19915;-70
2022/07/15 03:39:37;;;;;;;;;;;18.10;98.60;;;;;;5076157;28;19955;-70
2022/07/15 03:42:02;;;;;;;;;;;18.10;99.00;;;;;;5074370;28;19912;-70
2022/07/15 03:44:28;;;;;;;;;;;18.10;99.90;;;;;;5075699;28;19914;-70
2022/07/15 03:46:54;;;;;;;;;;;18.10;99.90;;;;;;5075675;28;20008;-70
2022/07/15 03:49:19;;;;;;;;;;;18.00;99.90;;;;;;5075976;28;19999;-70
2022/07/15 03:51:45;;;;;;;;;;;17.90;99.90;;;;;;5074351;28;20372;-70
2022/07/15 03:54:10;;;;;;;;;;;17.90;99.90;;;;;;5075517;28;19976;-70
2022/07/15 03:56:36;;;;;;;;;;;17.80;99.90;;;;;;5075521;28;19908;-70
2022/07/15 03:59:02;;;;;;;;;;;17.70;99.90;;;;;;5074878;28;19943;-70
2022/07/15 04:01:28;;;;;;;;;;;17.60;99.90;;;;;;5075420;28;20011;-70
2022/07/15 04:03:54;;;;;;;;;;;17.60;99.90;;;;;;5075375;28;20013;-70
2022/07/15 04:06:20;;;;;;;;;;;17.60;99.90;;;;;;5075324;28;19908;-70
2022/07/15 04:08:46;;;;;;;;;;;17.60;99.90;;;;;;5074000;28;19909;-70
2022/07/15 04:11:12;;;;;;;;;;;17.60;99.90;;;;;;5075282;28;20261;-70
2022/07/15 04:13:38;;;;;;;;;;;17.50;99.90;;;;;;5075183;28;19962;-70
2022/07/15 04:16:04;;;;;;;;;;;17.50;99.90;;;;;;5075062;28;19908;-70
2022/07/15 04:18:30;;;;;;;;;;;17.50;99.90;;;;;;5075070;28;20289;-70
2022/07/15 04:20:55;;;;;;;;;;;17.50;99.90;;;;;;5075280;28;19908;-70
2022/07/15 04:23:21;;;;;;;;;;;17.40;99.90;;;;;;5074851;28;19964;-70
2022/07/15 04:25:46;;;;;;;;;;;17.30;99.90;;;;;;5074825;28;19962;-70
2022/07/15 04:28:12;;;;;;;;;;;17.30;99.90;;;;;;5075043;28;19962;-69
2022/07/15 04:30:37;;;;;;;;;;;17.20;99.90;;;;;;5074780;28;19909;-69
2022/07/15 04:33:03;;;;;;;;;;;17.20;99.90;;;;;;5075024;28;20361;-69
2022/07/15 04:35:29;;;;;;;;;;;17.20;99.90;;;;;;5073411;28;19916;-69
2022/07/15 04:37:55;;;;;;;;;;;17.20;99.90;;;;;;5074665;28;20420;-69
2022/07/15 04:40:20;;;;;;;;;;;17.20;99.90;;;;;;5074680;28;19908;-69
2022/07/15 04:42:46;;;;;;;;;;;17.20;99.90;;;;;;5074752;28;19919;-69
2022/07/15 04:45:11;;;;;;;;;;;17.20;99.90;;;;;;5074521;28;19943;-69
2022/07/15 04:47:37;;;;;;;;;;;17.20;99.90;;;;;;5074484;28;19954;-69
2022/07/15 04:52:47;;;;;;;;;;;17.20;99.90;;;;;;5074696;28;19915;-69
2022/07/15 04:55:13;;;;;;;;;;;17.20;99.90;;;;;;5074337;28;19913;-69
2022/07/15 04:57:39;;;;;;;;;;;17.10;99.90;;;;;;5074623;28;20372;-69
2022/07/15 05:00:05;;;;;;;;;;;17.10;99.90;;;;;;5074329;28;19912;-69
2022/07/15 05:02:31;;;;;;;;;;;17.00;99.90;;;;;;5074109;28;19936;-68
2022/07/15 05:04:57;;;;;;;;;;;17.00;99.90;;;;;;5074319;28;20364;-68
2022/07/15 05:07:22;;;;;;;;;;;17.00;99.90;;;;;;5074430;28;19912;-68
2022/07/15 05:09:48;;;;;;;;;;;17.00;99.90;;;;;;5074028;28;19909;-68
2022/07/15 05:12:13;;;;;;;;;;;17.00;99.90;;;;;;5074106;28;19995;-68
2022/07/15 05:14:40;;;;;;;;;;;17.00;99.90;;;;;;5074150;28;20384;-68
2022/07/15 05:17:09;;;;;;;;;;;17.10;99.90;;;;;;5074050;28;19916;-68
2022/07/15 05:19:34;;;;;;;;;;;17.10;99.90;;;;;;5074052;28;20009;-68
2022/07/15 05:22:00;;;;;;;;;;;17.20;99.90;;;;;;5074277;28;20261;-68
2022/07/15 05:24:26;;;;;;;;;;;17.20;99.90;;;;;;5073835;28;19955;-68
2022/07/15 05:26:51;;;;;;;;;;;17.30;99.90;;;;;;5073963;28;19909;-68
2022/07/15 05:29:21;;;;;;;;;;;17.30;99.90;;;;;;5073913;28;19915;-68
2022/07/15 05:31:47;;;;;;;;;;;17.20;99.90;;;;;;5074666;28;19909;-68
2022/07/15 05:34:13;;;;;;;;;;;17.20;99.90;;;;;;5073703;28;19999;-69
2022/07/15 05:36:39;;;;;;;;;;;17.30;99.90;;;;;;5074131;28;19955;-68
2022/07/15 05:39:04;;;;;;;;;;;17.40;99.90;;;;;;5073834;28;20372;-68
2022/07/15 05:41:32;;;;;;;;;;;17.40;99.90;;;;;;5073787;28;19908;-68
2022/07/15 05:43:58;;;;;;;;;;;17.50;99.90;;;;;;5073638;28;19952;-69
2022/07/15 05:46:23;;;;;;;;;;;17.50;99.90;;;;;;5074043;28;19905;-69
2022/07/15 05:48:49;;;;;;;;;;;17.50;99.90;;;;;;5072381;28;19909;-69
2022/07/15 05:51:15;;;;;;;;;;;17.60;99.90;;;;;;5073662;28;19956;-69
2022/07/15 05:53:40;;;;;;;;;;;17.60;99.90;;;;;;5072310;28;19988;-69
2022/07/15 05:56:06;;;;;;;;;;;17.70;99.90;;;;;;5073661;28;20316;-68
2022/07/15 05:58:32;;;;;;;;;;;17.70;99.90;;;;;;5073563;28;19908;-69
2022/07/15 06:00:57;;;;;;;;;;;17.70;99.90;;;;;;5072372;28;19916;-68
2022/07/15 06:03:23;;;;;;;;;;;17.70;99.90;;;;;;5073997;28;19919;-69
2022/07/15 06:05:48;;;;;;;;;;;17.70;99.90;;;;;;5073460;28;19908;-69
2022/07/15 06:08:14;;;;;;;;;;;17.70;99.90;;;;;;5073508;28;19908;-69
2022/07/15 06:10:41;;;;;;;;;;;17.70;99.90;;;;;;5073436;28;20001;-69
2022/07/15 06:13:06;;;;;;;;;;;17.60;99.90;;;;;;5074298;28;20313;-69
2022/07/15 06:15:32;;;;;;;;;;;17.60;99.90;;;;;;5073917;28;19909;-69
2022/07/15 06:17:57;;;;;;;;;;;17.60;99.90;;;;;;5073397;28;19908;-68
2022/07/15 06:20:23;;;;;;;;;;;17.50;99.90;;;;;;5073404;28;19933;-69
2022/07/15 06:22:48;;;;;;;;;;;17.40;99.90;;;;;;5075366;28;19967;-69
2022/07/15 06:25:14;;;;;;;;;;;17.40;99.90;;;;;;5077316;28;19909;-69
2022/07/15 06:27:40;;;;;;;;;;;17.30;99.90;;;;;;5077187;28;20284;-69
2022/07/15 06:30:06;;;;;;;;;;;17.30;99.90;;;;;;5075923;28;19915;-69
2022/07/15 06:32:32;;;;;;;;;;;17.30;99.90;;;;;;5077084;28;19912;-69
2022/07/15 06:34:57;;;;;;;;;;;17.40;99.90;;;;;;5076831;28;20350;-69
2022/07/15 06:37:23;;;;;;;;;;;17.50;99.90;;;;;;5075727;28;19954;-69
2022/07/15 06:39:48;;;;;;;;;;;17.60;99.90;;;;;;5076924;28;20376;-69
2022/07/15 06:42:14;;;;;;;;;;;17.80;99.90;;;;;;5075595;28;19935;-69
2022/07/15 06:44:40;;;;;;;;;;;17.90;99.90;;;;;;5076808;28;19908;-71
2022/07/15 06:47:06;;;;;;;;;;;18.10;99.90;;;;;;5077078;28;20280;-68
2022/07/15 06:49:34;;;;;;;;;;;18.20;99.90;;;;;;5077046;28;19908;-69
2022/07/15 06:52:03;;;;;;;;;;;18.30;99.90;;;;;;5077012;28;19909;-69
2022/07/15 06:54:28;;;;;;;;;;;18.30;99.90;;;;;;5076645;28;20284;-69
2022/07/15 06:56:54;;;;;;;;;;;18.40;99.90;;;;;;5076967;28;19919;-68
2022/07/15 06:59:20;;;;;;;;;;;18.40;99.90;;;;;;5076656;28;20315;-69
2022/07/15 07:01:46;;;;;;;;;;;18.40;99.90;;;;;;5076611;28;20455;-68
2022/07/15 07:04:12;;;;;;;;;;;18.40;99.90;;;;;;5076576;28;19960;-69
2022/07/15 07:06:37;;;;;;;;;;;18.40;99.90;;;;;;5076459;28;19981;-69
2022/07/15 07:09:03;;;;;;;;;;;18.50;99.90;;;;;;5076711;28;19916;-69
2022/07/15 07:11:29;;;;;;;;;;;18.60;99.90;;;;;;5076420;28;19908;-69
2022/07/15 07:13:54;;;;;;;;;;;18.60;99.90;;;;;;5076335;28;19994;-69
2022/07/15 07:16:20;;;;;;;;;;;18.60;99.90;;;;;;5076327;28;20280;-70
2022/07/15 07:18:45;;;;;;;;;;;18.70;99.90;;;;;;5076233;28;19915;-70
2022/07/15 07:21:11;;;;;;;;;;;18.80;99.90;;;;;;5074984;28;19999;-69
2022/07/15 07:23:39;;;;;;;;;;;18.90;99.90;;;;;;5076396;28;20328;-69
2022/07/15 07:26:05;;;;;;;;;;;19.00;99.90;;;;;;5076131;28;19999;-69
2022/07/15 07:28:32;;;;;;;;;;;19.10;99.90;;;;;;5076074;28;20297;-69
2022/07/15 07:30:57;;;;;;;;;;;19.20;99.90;;;;;;5076069;28;19909;-69
2022/07/15 07:33:23;;;;;;;;;;;19.10;99.90;;;;;;5075139;28;19974;-69
2022/07/15 07:35:49;;;;;;;;;;;19.10;99.90;;;;;;5075418;28;20057;-69
2022/07/15 07:38:14;;;;;;;;;;;19.10;99.90;;;;;;5075963;28;19908;-69
2022/07/15 07:40:40;;;;;;;;;;;19.10;99.90;;;;;;5076174;28;20000;-69
2022/07/15 07:43:05;;;;;;;;;;;19.10;99.90;;;;;;5075757;28;19920;-69
2022/07/15 07:45:31;;;;;;;;;;;19.20;99.90;;;;;;5075745;28;19930;-69
2022/07/15 07:47:56;;;;;;;;;;;19.20;99.90;;;;;;5076342;28;19959;-69
2022/07/15 07:50:23;;;;;;;;;;;19.10;99.90;;;;;;5075711;28;19952;-69
2022/07/15 07:52:49;;;;;;;;;;;19.10;99.90;;;;;;5075879;28;19912;-69
2022/07/15 07:55:14;;;;;;;;;;;19.10;99.90;;;;;;5075551;28;19909;-69
2022/07/15 07:57:47;;;;;;;;;;;19.10;99.90;;;;;;5074295;28;20004;-69
2022/07/15 08:00:13;;;;;;;;;;;19.20;99.90;;;;;;5075487;28;19939;-69
2022/07/15 08:02:38;;;;;;;;;;;19.30;99.90;;;;;;5075705;28;19952;-69
2022/07/15 08:05:04;;;;;;;;;;;19.50;99.90;;;;;;5075283;28;19912;-70
2022/07/15 08:07:30;;;;;;;;;;;19.70;99.90;;;;;;5074088;28;19912;-69
2022/07/15 08:09:55;;;;;;;;;;;19.80;99.90;;;;;;5075347;28;19916;-70
2022/07/15 08:12:21;;;;;;;;;;;19.90;99.90;;;;;;5075198;28;19957;-70
2022/07/15 08:14:49;;;;;;;;;;;19.90;99.90;;;;;;5075120;28;19958;-69
2022/07/15 08:17:16;;;;;;;;;;;20.00;99.90;;;;;;5075186;28;19945;-70
2022/07/15 08:19:41;;;;;;;;;;;20.00;99.90;;;;;;5073732;28;19916;-69
2022/07/15 08:22:07;;;;;;;;;;;20.10;99.90;;;;;;5074972;28;19908;-69
2022/07/15 08:24:32;;;;;;;;;;;20.10;99.90;;;;;;5075152;28;19924;-69
2022/07/15 08:26:58;;;;;;;;;;;20.30;99.90;;;;;;5075532;28;19916;-69
2022/07/15 08:29:23;;;;;;;;;;;20.40;99.90;;;;;;5074908;28;19908;-69
2022/07/15 08:31:50;;;;;;;;;;;20.50;99.90;;;;;;5074870;28;19908;-69
2022/07/15 08:34:15;;;;;;;;;;;20.50;99.90;;;;;;5074835;28;20356;-70
2022/07/15 08:36:41;;;;;;;;;;;20.70;99.90;;;;;;5074741;28;19919;-69
2022/07/15 08:39:06;;;;;;;;;;;20.90;99.90;;;;;;5075037;28;19936;-70
2022/07/15 08:41:38;;;;;;;;;;;21.10;99.90;;;;;;5075212;28;20423;-70
2022/07/15 08:44:05;;;;;;;;;;;21.10;99.90;;;;;;5074477;28;19916;-70
2022/07/15 08:46:32;;;;;;;;;;;21.00;99.90;;;;;;5074482;28;19958;-70
2022/07/15 08:49:01;;;;;;;;;;;20.80;99.90;;;;;;5074478;28;19963;-70
2022/07/15 08:51:27;;;;;;;;;;;20.70;99.90;;;;;;5075012;28;19944;-70
2022/07/15 08:53:52;;;;;;;;;;;20.60;99.90;;;;;;5073108;28;20313;-70
2022/07/15 08:56:19;;;;;;;;;;;20.60;99.90;;;;;;5073113;28;19943;-70
2022/07/15 08:58:45;;;;;;;;;;;20.60;99.90;;;;;;5074589;28;20311;-70
2022/07/15 09:01:11;;;;;;;;;;;20.70;99.90;;;;;;5074282;28;20345;-70
2022/07/15 09:03:38;;;;;;;;;;;20.70;99.90;;;;;;5074344;28;19999;-70
2022/07/15 09:06:04;;;;;;;;;;;20.80;99.90;;;;;;5074743;28;19912;-70
2022/07/15 09:08:31;;;;;;;;;;;21.10;99.90;;;;;;5074205;28;19915;-70
2022/07/15 09:11:00;;;;;;;;;;;21.20;99.90;;;;;;5074159;28;19912;-70
2022/07/15 09:13:28;;;;;;;;;;;21.30;99.90;;;;;;5074127;28;20050;-70
2022/07/15 09:15:55;;;;;;;;;;;21.30;99.90;;;;;;5074298;28;19908;-70
2022/07/15 09:18:30;;;;;;;;;;;21.30;99.90;;;;;;5072814;28;19995;-70
2022/07/15 09:20:56;;;;;;;;;;;21.40;99.90;;;;;;5072817;28;19908;-70
2022/07/15 09:23:29;;;;;;;;;;;21.40;98.50;;;;;;5074224;28;19919;-70
2022/07/15 09:25:55;;;;;;;;;;;21.50;99.10;;;;;;5073956;28;19916;-70
2022/07/15 09:28:21;;;;;;;;;;;21.60;98.90;;;;;;5073917;28;19995;-70
2022/07/15 09:33:49;;;;;;;;;;;22.00;97.80;;;;;;5074081;28;19915;-71
2022/07/15 09:36:22;;;;;;;;;;;22.10;96.90;;;;;;5074467;28;19915;-71
2022/07/15 09:38:52;;;;;;;;;;;22.30;98.10;;;;;;5074076;28;19908;-70
2022/07/15 09:41:27;;;;;;;;;;;22.40;97.20;;;;;;5072521;28;19992;-71
2022/07/15 09:43:54;;;;;;;;;;;22.50;96.40;;;;;;5073580;28;20007;-71
2022/07/15 09:46:20;;;;;;;;;;;22.50;95.80;;;;;;5073999;28;20429;-71
2022/07/15 09:48:47;;;;;;;;;;;22.60;95.30;;;;;;5073728;28;19915;-71
2022/07/15 09:51:13;;;;;;;;;;;22.70;95.80;;;;;;5073692;28;20369;-71
2022/07/15 09:53:40;;;;;;;;;;;22.90;95.70;;;;;;5073955;28;19967;-71
2022/07/15 09:56:07;;;;;;;;;;;23.10;95.10;;;;;;5074173;28;19962;-71
2022/07/15 09:58:33;;;;;;;;;;;23.30;94.20;;;;;;5076991;28;19919;-71
2022/07/15 10:00:58;;;;;;;;;;;23.40;95.60;;;;;;5077784;28;19909;-71
2022/07/15 10:03:24;;;;;;;;;;;23.40;94.30;;;;;;5077919;28;19920;-70
2022/07/15 10:05:56;;;;;;;;;;;23.40;93.40;;;;;;5078256;28;19909;-70
2022/07/15 10:08:21;;;;;;;;;;;23.30;92.30;;;;;;5076433;28;19909;-71
2022/07/15 10:10:49;;;;;;;;;;;23.30;92.90;;;;;;5077548;28;19909;-70
2022/07/15 10:13:30;;;;;;;;;;;23.50;93.00;;;;;;5077498;28;19908;-71
2022/07/15 10:15:58;;;;;;;;;;;23.60;91.90;;;;;;5077457;28;19915;-71
2022/07/15 10:18:34;;;;;;;;;;;23.80;91.40;;;;;;5078004;28;19908;-71
2022/07/15 10:21:08;;;;;;;;;;;23.90;91.10;;;;;;5077649;28;19908;-71
2022/07/15 10:23:42;;;;;;;;;;;24.00;92.10;;;;;;5077593;28;19919;-71
2022/07/15 10:26:14;;;;;;;;;;;24.10;92.10;;;;;;5077595;28;19991;-71
2022/07/15 10:28:50;;;;;;;;;;;24.10;92.50;;;;;;5077192;28;19908;-71
2022/07/15 10:31:18;;;;;;;;;;;24.20;92.00;;;;;;5077413;28;19908;-70
2022/07/15 10:34:02;;;;;;;;;;;24.30;91.60;;;;;;5076914;28;19916;-70
2022/07/15 10:36:46;;;;;;;;;;;24.50;90.90;;;;;;5075821;28;19970;-71
2022/07/15 10:39:12;;;;;;;;;;;24.70;90.50;;;;;;5075894;28;19916;-70
2022/07/15 10:41:47;;;;;;;;;;;24.70;90.30;;;;;;5077279;28;19916;-70
2022/07/15 10:44:12;;;;;;;;;;;24.70;90.20;;;;;;5076707;28;19948;-71
2022/07/15 10:46:38;;;;;;;;;;;24.70;89.20;;;;;;5075588;28;19946;-70
2022/07/15 10:49:03;;;;;;;;;;;24.70;87.50;;;;;;5076731;28;19908;-70
2022/07/15 10:51:35;;;;;;;;;;;24.70;88.60;;;;;;5077009;28;19908;-71
2022/07/15 10:54:01;;;;;;;;;;;24.70;87.90;;;;;;5076898;28;19912;-70
2022/07/15 10:56:28;;;;;;;;;;;24.70;84.50;;;;;;5075731;28;19974;-71
2022/07/15 10:59:08;;;;;;;;;;;24.60;85.80;;;;;;5076535;28;19913;-70
2022/07/15 11:01:34;;;;;;;;;;;24.70;88.20;;;;;;5076628;28;19915;-71
2022/07/15 11:04:19;;;;;;;;;;;24.70;90.30;;;;;;5076593;28;19912;-70
2022/07/15 11:07:03;;;;;;;;;;;24.80;87.80;;;;;;5076474;28;19908;-71
2022/07/15 11:10:01;;;;;;;;;;;24.90;90.20;;;;;;5074842;28;19908;-70
2022/07/15 11:12:30;;;;;;;;;;;25.00;87.80;;;;;;5064175;28;19931;-70
2022/07/15 11:14:55;;;;;;;;;;;24.90;87.50;;;;;;5076278;28;19958;-70
2022/07/15 11:17:24;;;;;;;;;;;24.80;87.70;;;;;;5076333;28;19967;-70
2022/07/15 11:19:52;;;;;;;;;;;24.60;88.90;;;;;;5076322;28;19915;-71
2022/07/15 11:22:18;;;;;;;;;;;24.50;88.30;;;;;;5076295;28;19908;-70
2022/07/15 11:24:44;;;;;;;;;;;24.60;89.00;;;;;;5074724;28;19912;-70
2022/07/15 11:27:10;;;;;;;;;;;24.70;90.00;;;;;;5076432;28;20011;-70
2022/07/15 11:29:42;;;;;;;;;;;24.80;90.10;;;;;;5076080;28;19916;-70
2022/07/15 11:32:08;;;;;;;;;;;24.90;90.30;;;;;;5074862;28;19974;-70
2022/07/15 11:34:42;;;;;;;;;;;25.10;88.80;;;;;;5076075;28;20419;-70
2022/07/15 11:37:09;;;;;;;;;;;25.20;87.10;;;;;;5074756;28;19936;-70
2022/07/15 11:39:34;;;;;;;;;;;25.30;88.40;;;;;;5076190;28;20360;-70
2022/07/15 11:44:45;;;;;;;;;;;25.40;87.80;;;;;;5075752;28;19935;-70
2022/07/15 11:47:11;;;;;;;;;;;25.50;83.90;;;;;;5076070;28;19997;-70
2022/07/15 11:49:42;;;;;;;;;;;25.50;84.60;;;;;;5075730;28;19912;-70
2022/07/15 11:52:09;;;;;;;;;;;25.50;83.60;;;;;;5076294;28;19909;-70
2022/07/15 11:54:35;;;;;;;;;;;25.60;87.40;;;;;;5075857;28;19932;-70
2022/07/15 11:57:06;;;;;;;;;;;25.60;82.60;;;;;;5074340;28;19908;-71
2022/07/15 11:59:31;;;;;;;;;;;25.70;84.30;;;;;;5075829;28;19936;-70
2022/07/15 12:02:03;;;;;;;;;;;25.80;84.70;;;;;;5076266;28;19962;-74
2022/07/15 12:04:28;;;;;;;;;;;25.90;80.80;;;;;;5075164;28;19912;-72
2022/07/15 12:06:54;;;;;;;;;;;25.90;81.00;;;;;;5075413;28;19909;-73
2022/07/15 12:09:20;;;;;;;;;;;26.00;79.10;;;;;;5075966;28;19940;-72
2022/07/15 12:11:45;;;;;;;;;;;25.90;81.40;;;;;;5075688;28;20249;-74
2022/07/15 12:14:21;;;;;;;;;;;25.80;81.40;;;;;;5075381;28;19908;-72
2022/07/15 12:16:53;;;;;;;;;;;25.70;85.00;;;;;;5075474;28;19908;-74
2022/07/15 12:19:23;;;;;;;;;;;25.80;81.40;;;;;;5075207;28;19954;-72
2022/07/15 12:21:50;;;;;;;;;;;25.80;82.90;;;;;;5074734;28;19962;-73
2022/07/15 12:24:17;;;;;;;;;;;25.80;81.40;;;;;;5074875;28;19940;-74
2022/07/15 12:26:48;;;;;;;;;;;25.80;84.50;;;;;;5075333;28;19917;-74
2022/07/15 12:29:16;;;;;;;;;;;25.90;83.50;;;;;;5074874;28;19908;-73
2022/07/15 12:31:43;;;;;;;;;;;25.90;83.20;;;;;;5074883;28;19909;-72
2022/07/15 12:34:09;;;;;;;;;;;25.80;82.50;;;;;;5074646;28;20375;-75
2022/07/15 12:36:37;;;;;;;;;;;25.90;82.00;;;;;;5075399;28;19912;-73
2022/07/15 12:39:03;;;;;;;;;;;26.00;84.50;;;;;;5074695;28;19943;-74
2022/07/15 12:41:28;;;;;;;;;;;26.10;85.10;;;;;;5074964;28;19967;-72
2022/07/15 12:43:56;;;;;;;;;;;26.20;81.40;;;;;;5074441;28;19912;-72
2022/07/15 12:46:40;;;;;;;;;;;26.20;79.90;;;;;;5074919;28;19912;-72
2022/07/15 12:49:07;;;;;;;;;;;26.20;80.60;;;;;;5075147;28;19909;-72
2022/07/15 12:51:33;;;;;;;;;;;26.10;82.60;;;;;;5074797;28;19954;-72
2022/07/15 12:54:06;;;;;;;;;;;26.10;80.70;;;;;;5074398;28;19908;-73
2022/07/15 12:56:50;;;;;;;;;;;26.00;80.90;;;;;;5074670;28;20272;-75
2022/07/15 12:59:16;;;;;;;;;;;25.90;82.80;;;;;;5074962;28;19916;-73
2022/07/15 13:02:00;;;;;;;;;;;25.90;82.50;;;;;;5074887;28;19909;-73
2022/07/15 13:04:26;;;;;;;;;;;25.80;83.20;;;;;;5074410;28;19912;-69
2022/07/15 13:06:51;;;;;;;;;;;25.90;83.30;;;;;;5073276;28;19923;-74
2022/07/15 13:09:17;;;;;;;;;;;25.90;83.60;;;;;;5074592;28;19909;-73
2022/07/15 13:11:42;;;;;;;;;;;25.70;83.30;;;;;;5074233;28;19912;-73
2022/07/15 13:14:08;;;;;;;;;;;25.50;83.40;;;;;;5072792;28;19908;-72
2022/07/15 13:16:33;;;;;;;;;;;25.40;82.80;;;;;;5074422;28;19948;-73
2022/07/15 13:18:59;;;;;;;;;;;25.40;84.00;;;;;;5072856;28;19912;-73
2022/07/15 13:21:24;;;;;;;;;;;25.60;83.50;;;;;;5074033;28;19958;-72
2022/07/15 13:23:50;;;;;;;;;;;25.80;84.20;;;;;;5073829;28;19912;-74
2022/07/15 13:26:15;;;;;;;;;;;25.80;81.80;;;;;;5074293;28;20306;-70
2022/07/15 13:28:41;;;;;;;;;;;25.80;83.90;;;;;;5072712;28;19908;-70
2022/07/15 13:31:07;;;;;;;;;;;25.80;82.90;;;;;;5074152;28;19991;-70
2022/07/15 13:33:32;;;;;;;;;;;25.80;82.50;;;;;;5073750;28;19909;-71
2022/07/15 13:35:58;;;;;;;;;;;25.90;82.50;;;;;;5072565;28;19920;-70
2022/07/15 13:38:24;;;;;;;;;;;25.80;82.30;;;;;;5074150;28;19916;-70
2022/07/15 13:40:50;;;;;;;;;;;25.90;81.30;;;;;;5073775;28;19916;-70
2022/07/15 13:43:16;;;;;;;;;;;26.00;84.90;;;;;;5073704;28;19912;-70
2022/07/15 13:45:41;;;;;;;;;;;26.20;82.80;;;;;;5072477;28;19915;-70
2022/07/15 13:48:07;;;;;;;;;;;26.30;82.30;;;;;;5074335;28;19995;-70
2022/07/15 13:53:17;;;;;;;;;;;26.30;82.40;;;;;;5073703;28;19932;-70
2022/07/15 13:55:42;;;;;;;;;;;26.20;80.20;;;;;;5073582;28;20357;-70
2022/07/15 13:58:09;;;;;;;;;;;26.20;79.30;;;;;;5073602;28;19912;-70
2022/07/15 14:00:39;;;;;;;;;;;26.10;80.40;;;;;;5074153;28;19908;-70
2022/07/15 14:03:04;;;;;;;;;;;25.90;81.10;;;;;;5073798;28;19972;-70
2022/07/15 14:05:30;;;;;;;;;;;25.90;82.20;;;;;;5073543;28;20308;-70
2022/07/15 14:07:55;;;;;;;;;;;25.90;80.90;;;;;;5073757;28;19909;-71
2022/07/15 14:10:21;;;;;;;;;;;26.00;80.80;;;;;;5073802;28;19912;-71
2022/07/15 14:12:46;;;;;;;;;;;26.00;80.30;;;;;;5073473;28;20392;-71
2022/07/15 14:15:12;;;;;;;;;;;26.10;80.30;;;;;;5073288;28;20003;-72
2022/07/15 14:17:38;;;;;;;;;;;26.10;79.40;;;;;;5073426;28;19915;-71
2022/07/15 14:20:04;;;;;;;;;;;26.00;81.40;;;;;;5073743;28;19912;-70
2022/07/15 14:22:30;;;;;;;;;;;26.00;79.60;;;;;;5073627;28;20373;-71
2022/07/15 14:24:56;;;;;;;;;;;25.80;80.00;;;;;;5073579;28;19908;-70